Language: 


Des rapports , des résumés tant et plus, au choix de chacun....


Données Historiques de Météogheer
Journalier Rapport pour Janvier 22, 2018 Unitée:  Les deux    Impériale   Métrique
Suivant Jour »
Journalier Hebdomadaire Mensuel Annuel Sur mesure
  Max: Min: Moyenne:
Température: 52.7 °F /  11.5 °C 40.6 °F /  4.8 °C 47.3 °F /  8.5 °C
Point de rosée: 51.8 °F /  11.0 °C 37.4 °F /  3.0 °C 45.3 °F /  7.4 °C
Humidité: 98% 70% 92%
Vent: 1.3mph /  2.1km/h - 0.5mph /  0.8km/h
Rafales: 1.3mph /  2.1km/h - -
Vent- - SSW
Pression: 30.1 in /  1018.8 hPa 29.7 in /  1005.0 hPa -
Pluie: 0.04 in /  1.0 mm    
Historical Graphs
 
 
Données tabulaires pour Janvier 22, 2018
Heure Température Point de rosée Pression Vent Vent Rafales Humidité Pluie Taux (Horaire) Conditions
00:06 40.6 °F /  4.8 °C 41 °F /  5.0 °C 29.7in /  1006.0hPa SSW 1.3mph /  2.1km/h 1.3mph /  2.1km/h 98% 0.02in /  0.5mm
00:11 40.8 °F /  4.9 °C 41 °F /  5.0 °C 29.7in /  1006.0hPa SSW 1.3mph /  2.1km/h 1.3mph /  2.1km/h 98% 0.02in /  0.5mm
00:16 40.8 °F /  4.9 °C 41 °F /  5.0 °C 29.7in /  1006.0hPa SSW 1.3mph /  2.1km/h 1.3mph /  2.1km/h 98% 0.02in /  0.5mm
00:21 40.8 °F /  4.9 °C 41 °F /  5.0 °C 29.7in /  1006.0hPa SSW 1.3mph /  2.1km/h 1.3mph /  2.1km/h 98% 0.02in /  0.5mm
00:26 41.2 °F /  5.1 °C 41 °F /  5.0 °C 29.7in /  1006.0hPa SSW 1.3mph /  2.1km/h 1.3mph /  2.1km/h 98% 0.01in /  0.3mm
00:31 41.4 °F /  5.2 °C 41 °F /  5.0 °C 29.7in /  1006.0hPa SSW 1.3mph /  2.1km/h 1.3mph /  2.1km/h 98% 0.01in /  0.3mm
00:36 41.4 °F /  5.2 °C 41 °F /  5.0 °C 29.7in /  1006.0hPa SSW 1.3mph /  2.1km/h 1.3mph /  2.1km/h 98% 0.01in /  0.3mm
00:41 41.4 °F /  5.2 °C 41 °F /  5.0 °C 29.7in /  1006.0hPa SSW 1.3mph /  2.1km/h 1.3mph /  2.1km/h 98% 0.01in /  0.3mm
00:46 41.4 °F /  5.2 °C 41 °F /  5.0 °C 29.7in /  1006.0hPa SSW 1.3mph /  2.1km/h 1.3mph /  2.1km/h 98% 0.01in /  0.3mm
00:51 41.4 °F /  5.2 °C 41 °F /  5.0 °C 29.7in /  1006.0hPa SSW 1.3mph /  2.1km/h 1.3mph /  2.1km/h 98% 0.02in /  0.5mm
00:56 41.4 °F /  5.2 °C 41 °F /  5.0 °C 29.7in /  1006.0hPa SSW 1.3mph /  2.1km/h 1.3mph /  2.1km/h 98% 0.01in /  0.3mm
01:01 41.4 °F /  5.2 °C 41 °F /  5.0 °C 29.7in /  1006.0hPa SSW 1.3mph /  2.1km/h 1.3mph /  2.1km/h 98% 0.01in /  0.3mm
01:06 41.4 °F /  5.2 °C 41 °F /  5.0 °C 29.7in /  1006.0hPa SSW 1.3mph /  2.1km/h 1.3mph /  2.1km/h 98% 0.01in /  0.3mm
01:11 42.3 °F /  5.7 °C 42.8 °F /  6.0 °C 29.7in /  1006.0hPa SSW 1.3mph /  2.1km/h 1.3mph /  2.1km/h 98% 0.01in /  0.3mm
01:16 42.3 °F /  5.7 °C 42.8 °F /  6.0 °C 29.7in /  1006.0hPa SSW 1.3mph /  2.1km/h 1.3mph /  2.1km/h 98% 0.01in /  0.3mm
01:21 42.3 °F /  5.7 °C 42.8 °F /  6.0 °C 29.7in /  1006.0hPa SSW 1.3mph /  2.1km/h 1.3mph /  2.1km/h 98% 0.01in /  0.3mm
01:26 42.3 °F /  5.7 °C 42.8 °F /  6.0 °C 29.7in /  1006.0hPa SSW 1.3mph /  2.1km/h 1.3mph /  2.1km/h 98% 0.01in /  0.3mm
01:31 42.3 °F /  5.7 °C 42.8 °F /  6.0 °C 29.7in /  1006.0hPa SSW 1.3mph /  2.1km/h 1.3mph /  2.1km/h 98% 0.01in /  0.3mm
01:36 42.3 °F /  5.7 °C 42.8 °F /  6.0 °C 29.7in /  1006.0hPa SSW 1.3mph /  2.1km/h 1.3mph /  2.1km/h 98% 0.02in /  0.5mm
01:42 43.3 °F /  6.3 °C 42.8 °F /  6.0 °C 29.7in /  1006.0hPa SSW 1.3mph /  2.1km/h 1.3mph /  2.1km/h 98% 0.02in /  0.5mm
01:47 43.5 °F /  6.4 °C 42.8 °F /  6.0 °C 29.7in /  1006.0hPa SSW 1.3mph /  2.1km/h 1.3mph /  2.1km/h 98% 0.02in /  0.5mm
01:52 43.5 °F /  6.4 °C 42.8 °F /  6.0 °C 29.7in /  1006.0hPa SSW 1.3mph /  2.1km/h 1.3mph /  2.1km/h 98% 0.01in /  0.3mm
01:57 44.6 °F /  7.0 °C 44.6 °F /  7.0 °C 29.7in /  1006.0hPa SSW 1.3mph /  2.1km/h 1.3mph /  2.1km/h 98% 0.01in /  0.3mm
02:02 44.6 °F /  7.0 °C 44.6 °F /  7.0 °C 29.7in /  1005.0hPa SSW 1.3mph /  2.1km/h 1.3mph /  2.1km/h 98% 0.01in /  0.3mm
02:07 45.3 °F /  7.4 °C 44.6 °F /  7.0 °C 29.7in /  1005.0hPa SSW 1.3mph /  2.1km/h 1.3mph /  2.1km/h 98% 0.01in /  0.3mm
02:12 45.3 °F /  7.4 °C 44.6 °F /  7.0 °C 29.7in /  1005.0hPa SSW 1.3mph /  2.1km/h 1.3mph /  2.1km/h 98% 0.01in /  0.3mm
02:17 46 °F /  7.8 °C 46.4 °F /  8.0 °C 29.7in /  1005.0hPa SSW 1.3mph /  2.1km/h 1.3mph /  2.1km/h 98% 0.01in /  0.3mm
02:22 46 °F /  7.8 °C 46.4 °F /  8.0 °C 29.7in /  1005.0hPa SSW 1.3mph /  2.1km/h 1.3mph /  2.1km/h 98% 0.01in /  0.3mm
02:27 46 °F /  7.8 °C 46.4 °F /  8.0 °C 29.7in /  1005.0hPa SSW 1.3mph /  2.1km/h 1.3mph /  2.1km/h 98% 0.01in /  0.3mm
02:32 46 °F /  7.8 °C 46.4 °F /  8.0 °C 29.7in /  1005.0hPa SSW 1.3mph /  2.1km/h 1.3mph /  2.1km/h 98% 0in /  0.0mm
02:37 46 °F /  7.8 °C 46.4 °F /  8.0 °C 29.7in /  1005.0hPa SSW 1.3mph /  2.1km/h 1.3mph /  2.1km/h 98% 0in /  0.0mm
02:42 46 °F /  7.8 °C 46.4 °F /  8.0 °C 29.7in /  1005.0hPa SSW 1.3mph /  2.1km/h 1.3mph /  2.1km/h 98% 0in /  0.0mm
02:48 46 °F /  7.8 °C 46.4 °F /  8.0 °C 29.7in /  1005.0hPa SSW 1.3mph /  2.1km/h 1.3mph /  2.1km/h 98% 0in /  0.0mm
02:53 47.8 °F /  8.8 °C 48.2 °F /  9.0 °C 29.7in /  1005.0hPa SSW 1.3mph /  2.1km/h 1.3mph /  2.1km/h 98% 0.01in /  0.3mm
02:58 47.8 °F /  8.8 °C 48.2 °F /  9.0 °C 29.7in /  1005.0hPa SSW 1.3mph /  2.1km/h 1.3mph /  2.1km/h 98% 0.01in /  0.3mm
03:03 47.8 °F /  8.8 °C 48.2 °F /  9.0 °C 29.7in /  1005.0hPa SSW 1.3mph /  2.1km/h 1.3mph /  2.1km/h 98% 0.01in /  0.3mm
03:08 47.8 °F /  8.8 °C 48.2 °F /  9.0 °C 29.7in /  1005.0hPa SSW 1.3mph /  2.1km/h 1.3mph /  2.1km/h 98% 0.01in /  0.3mm
03:13 47.8 °F /  8.8 °C 48.2 °F /  9.0 °C 29.7in /  1005.0hPa SSW 1.3mph /  2.1km/h 1.3mph /  2.1km/h 98% 0.01in /  0.3mm
03:18 47.8 °F /  8.8 °C 48.2 °F /  9.0 °C 29.7in /  1005.0hPa SSW 1.3mph /  2.1km/h 1.3mph /  2.1km/h 98% 0.01in /  0.3mm
03:23 47.8 °F /  8.8 °C 48.2 °F /  9.0 °C 29.7in /  1005.0hPa SSW 1.3mph /  2.1km/h 1.3mph /  2.1km/h 98% 0.01in /  0.3mm
03:28 47.8 °F /  8.8 °C 48.2 °F /  9.0 °C 29.7in /  1005.0hPa SSW 1.3mph /  2.1km/h 1.3mph /  2.1km/h 98% 0.01in /  0.3mm
03:38 47.8 °F /  8.8 °C 48.2 °F /  9.0 °C 29.7in /  1006.0hPa SSW 1.3mph /  2.1km/h 1.3mph /  2.1km/h 98% 0.01in /  0.3mm
03:43 49.6 °F /  9.8 °C 50 °F /  10.0 °C 29.7in /  1006.0hPa SSW 1.3mph /  2.1km/h 1.3mph /  2.1km/h 98% 0.01in /  0.3mm
03:48 49.6 °F /  9.8 °C 50 °F /  10.0 °C 29.7in /  1006.0hPa SSW 1.3mph /  2.1km/h 1.3mph /  2.1km/h 98% 0.01in /  0.3mm
03:53 49.6 °F /  9.8 °C 50 °F /  10.0 °C 29.7in /  1006.0hPa SSW 1.3mph /  2.1km/h 1.3mph /  2.1km/h 98% 0in /  0.0mm
04:03 50 °F /  10.0 °C 50 °F /  10.0 °C 29.7in /  1006.0hPa SSW 1.3mph /  2.1km/h 1.3mph /  2.1km/h 98% 0in /  0.0mm
04:13 50 °F /  10.0 °C 50 °F /  10.0 °C 29.7in /  1005.0hPa SSW 1.3mph /  2.1km/h 1.3mph /  2.1km/h 98% 0in /  0.0mm
04:19 49.8 °F /  9.9 °C 50 °F /  10.0 °C 29.7in /  1005.0hPa SSW 1.3mph /  2.1km/h 1.3mph /  2.1km/h 98% 0in /  0.0mm
04:34 49.8 °F /  9.9 °C 50 °F /  10.0 °C 29.7in /  1006.0hPa SSW 1.3mph /  2.1km/h 1.3mph /  2.1km/h 98% 0in /  0.0mm
04:39 49.8 °F /  9.9 °C 50 °F /  10.0 °C 29.7in /  1006.0hPa SSW 1.3mph /  2.1km/h 1.3mph /  2.1km/h 98% 0in /  0.0mm
04:44 49.8 °F /  9.9 °C 50 °F /  10.0 °C 29.7in /  1005.0hPa SSW 1.3mph /  2.1km/h 1.3mph /  2.1km/h 98% 0in /  0.0mm
04:54 49.8 °F /  9.9 °C 50 °F /  10.0 °C 29.7in /  1005.0hPa SSW 1.3mph /  2.1km/h 1.3mph /  2.1km/h 98% 0in /  0.0mm
04:59 49.8 °F /  9.9 °C 50 °F /  10.0 °C 29.7in /  1006.0hPa SSW 1.3mph /  2.1km/h 1.3mph /  2.1km/h 98% 0in /  0.0mm
05:09 49.8 °F /  9.9 °C 50 °F /  10.0 °C 29.7in /  1006.0hPa SSW 1.3mph /  2.1km/h 1.3mph /  2.1km/h 98% 0in /  0.0mm
05:14 49.8 °F /  9.9 °C 50 °F /  10.0 °C 29.7in /  1006.0hPa SSW 1.3mph /  2.1km/h 1.3mph /  2.1km/h 98% 0in /  0.0mm
05:19 49.8 °F /  9.9 °C 50 °F /  10.0 °C 29.7in /  1006.0hPa SSW 1.3mph /  2.1km/h 1.3mph /  2.1km/h 98% 0in /  0.0mm
05:34 50 °F /  10.0 °C 50 °F /  10.0 °C 29.7in /  1006.0hPa SSW 1.3mph /  2.1km/h 1.3mph /  2.1km/h 98% 0in /  0.0mm
05:39 50 °F /  10.0 °C 50 °F /  10.0 °C 29.7in /  1006.0hPa SSW 1.3mph /  2.1km/h 1.3mph /  2.1km/h 98% 0in /  0.0mm
05:44 50 °F /  10.0 °C 50 °F /  10.0 °C 29.7in /  1006.0hPa SSW 1.3mph /  2.1km/h 1.3mph /  2.1km/h 98% 0in /  0.0mm
05:49 50 °F /  10.0 °C 50 °F /  10.0 °C 29.7in /  1006.0hPa SSW 1.3mph /  2.1km/h 1.3mph /  2.1km/h 98% 0in /  0.0mm
05:54 50 °F /  10.0 °C 50 °F /  10.0 °C 29.7in /  1006.0hPa SSW 1.3mph /  2.1km/h 1.3mph /  2.1km/h 98% 0in /  0.0mm
06:05 50 °F /  10.0 °C 50 °F /  10.0 °C 29.7in /  1006.0hPa SSW 1.3mph /  2.1km/h 1.3mph /  2.1km/h 98% 0in /  0.0mm
06:10 50 °F /  10.0 °C 50 °F /  10.0 °C 29.7in /  1006.0hPa SSW 1.3mph /  2.1km/h 1.3mph /  2.1km/h 98% 0in /  0.0mm
06:15 50 °F /  10.0 °C 50 °F /  10.0 °C 29.7in /  1006.0hPa SSW 1.3mph /  2.1km/h 1.3mph /  2.1km/h 98% 0in /  0.0mm
06:20 50 °F /  10.0 °C 50 °F /  10.0 °C 29.7in /  1006.0hPa SSW 1.3mph /  2.1km/h 1.3mph /  2.1km/h 98% 0in /  0.0mm
06:25 50 °F /  10.0 °C 50 °F /  10.0 °C 29.7in /  1006.0hPa SSW 1.3mph /  2.1km/h 1.3mph /  2.1km/h 98% 0in /  0.0mm
06:30 50 °F /  10.0 °C 50 °F /  10.0 °C 29.7in /  1005.0hPa SSW 1.3mph /  2.1km/h 1.3mph /  2.1km/h 98% 0in /  0.0mm
06:35 50 °F /  10.0 °C 50 °F /  10.0 °C 29.7in /  1005.0hPa SSW 1.3mph /  2.1km/h 1.3mph /  2.1km/h 98% 0in /  0.0mm
06:40 50 °F /  10.0 °C 50 °F /  10.0 °C 29.7in /  1005.0hPa SSW 1.3mph /  2.1km/h 1.3mph /  2.1km/h 98% 0in /  0.0mm
06:45 50 °F /  10.0 °C 50 °F /  10.0 °C 29.7in /  1006.0hPa SSW 1.3mph /  2.1km/h 1.3mph /  2.1km/h 98% 0in /  0.0mm
06:55 50 °F /  10.0 °C 50 °F /  10.0 °C 29.7in /  1006.0hPa SSW 1.3mph /  2.1km/h 1.3mph /  2.1km/h 98% 0in /  0.0mm
07:00 50 °F /  10.0 °C 50 °F /  10.0 °C 29.7in /  1005.0hPa SSW 1.3mph /  2.1km/h 1.3mph /  2.1km/h 98% 0in /  0.0mm
07:05 50 °F /  10.0 °C 50 °F /  10.0 °C 29.7in /  1005.0hPa SSW 1.3mph /  2.1km/h 1.3mph /  2.1km/h 98% 0in /  0.0mm
07:10 50 °F /  10.0 °C 50 °F /  10.0 °C 29.7in /  1005.0hPa SSW 1.3mph /  2.1km/h 1.3mph /  2.1km/h 98% 0in /  0.0mm
07:15 50 °F /  10.0 °C 50 °F /  10.0 °C 29.7in /  1006.0hPa SSW 1.3mph /  2.1km/h 1.3mph /  2.1km/h 98% 0in /  0.0mm
07:20 50 °F /  10.0 °C 50 °F /  10.0 °C 29.7in /  1006.0hPa SSW 1.3mph /  2.1km/h 1.3mph /  2.1km/h 98% 0in /  0.0mm
07:25 50 °F /  10.0 °C 50 °F /  10.0 °C 29.7in /  1006.0hPa SSW 1.3mph /  2.1km/h 1.3mph /  2.1km/h 98% 0in /  0.0mm
07:30 50 °F /  10.0 °C 50 °F /  10.0 °C 29.7in /  1006.0hPa SSW 1.3mph /  2.1km/h 1.3mph /  2.1km/h 98% 0in /  0.0mm
07:35 50 °F /  10.0 °C 50 °F /  10.0 °C 29.7in /  1006.0hPa SSW 1.3mph /  2.1km/h 1.3mph /  2.1km/h 98% 0in /  0.0mm
07:40 50 °F /  10.0 °C 50 °F /  10.0 °C 29.7in /  1006.0hPa SSW 1.3mph /  2.1km/h 1.3mph /  2.1km/h 98% 0in /  0.0mm
07:45 50 °F /  10.0 °C 50 °F /  10.0 °C 29.7in /  1006.0hPa SSW 1.3mph /  2.1km/h 1.3mph /  2.1km/h 98% 0in /  0.0mm
07:55 50 °F /  10.0 °C 50 °F /  10.0 °C 29.7in /  1006.0hPa SSW 1.3mph /  2.1km/h 1.3mph /  2.1km/h 98% 0in /  0.0mm
08:00 50 °F /  10.0 °C 50 °F /  10.0 °C 29.7in /  1007.0hPa SSW 1.3mph /  2.1km/h 1.3mph /  2.1km/h 98% 0in /  0.0mm
08:05 50 °F /  10.0 °C 50 °F /  10.0 °C 29.7in /  1007.0hPa SSW 1.3mph /  2.1km/h 1.3mph /  2.1km/h 98% 0in /  0.0mm
08:10 50 °F /  10.0 °C 50 °F /  10.0 °C 29.7in /  1007.0hPa SSW 1.3mph /  2.1km/h 1.3mph /  2.1km/h 98% 0in /  0.0mm
08:15 50 °F /  10.0 °C 50 °F /  10.0 °C 29.7in /  1006.0hPa SSW 1.3mph /  2.1km/h 1.3mph /  2.1km/h 98% 0in /  0.0mm
08:25 50 °F /  10.0 °C 50 °F /  10.0 °C 29.7in /  1006.0hPa SSW 1.3mph /  2.1km/h 1.3mph /  2.1km/h 98% 0in /  0.0mm
08:35 50 °F /  10.0 °C 50 °F /  10.0 °C 29.7in /  1006.0hPa SSW 1.3mph /  2.1km/h 1.3mph /  2.1km/h 98% 0in /  0.0mm
08:45 50 °F /  10.0 °C 50 °F /  10.0 °C 29.7in /  1007.0hPa SSW 1.3mph /  2.1km/h 1.3mph /  2.1km/h 98% 0in /  0.0mm
08:50 50 °F /  10.0 °C 50 °F /  10.0 °C 29.7in /  1007.0hPa SSW 1.3mph /  2.1km/h 1.3mph /  2.1km/h 98% 0in /  0.0mm
08:55 50 °F /  10.0 °C 50 °F /  10.0 °C 29.7in /  1007.0hPa SSW 1.3mph /  2.1km/h 1.3mph /  2.1km/h 98% 0in /  0.0mm
09:01 50 °F /  10.0 °C 50 °F /  10.0 °C 29.7in /  1007.0hPa SSW 1.3mph /  2.1km/h 1.3mph /  2.1km/h 98% 0in /  0.0mm
09:11 50 °F /  10.0 °C 50 °F /  10.0 °C 29.7in /  1007.0hPa SSW 1.3mph /  2.1km/h 1.3mph /  2.1km/h 98% 0in /  0.0mm
09:21 50 °F /  10.0 °C 50 °F /  10.0 °C 29.7in /  1007.0hPa Calm     98% 0in /  0.0mm
09:26 50 °F /  10.0 °C 50 °F /  10.0 °C 29.7in /  1007.0hPa Calm     98% 0in /  0.0mm
09:31 46.8 °F /  8.2 °C 46.4 °F /  8.0 °C 29.7in /  1007.0hPa Calm     98% 0in /  0.0mm
09:36 46.8 °F /  8.2 °C 46.4 °F /  8.0 °C 29.7in /  1007.0hPa Calm     98% 0in /  0.0mm
09:41 47.1 °F /  8.4 °C 48.2 °F /  9.0 °C 29.7in /  1007.0hPa Calm     98% 0in /  0.0mm
09:46 47.1 °F /  8.4 °C 48.2 °F /  9.0 °C 29.7in /  1007.0hPa Calm     98% 0in /  0.0mm
10:01 47.3 °F /  8.5 °C 48.2 °F /  9.0 °C 29.7in /  1007.0hPa Calm     98% 0in /  0.0mm
10:11 47.3 °F /  8.5 °C 48.2 °F /  9.0 °C 29.7in /  1007.0hPa Calm     98% 0in /  0.0mm
10:16 47.3 °F /  8.5 °C 48.2 °F /  9.0 °C 29.7in /  1006.0hPa Calm     98% 0in /  0.0mm
10:21 47.5 °F /  8.6 °C 48.2 °F /  9.0 °C 29.7in /  1006.0hPa Calm     98% 0in /  0.0mm
10:26 47.8 °F /  8.8 °C 48.2 °F /  9.0 °C 29.7in /  1006.0hPa Calm     98% 0in /  0.0mm
10:31 48.2 °F /  9.0 °C 48.2 °F /  9.0 °C 29.7in /  1007.0hPa Calm     98% 0in /  0.0mm
10:36 48.4 °F /  9.1 °C 48.2 °F /  9.0 °C 29.7in /  1007.0hPa Calm     98% 0in /  0.0mm
10:41 48.6 °F /  9.2 °C 48.2 °F /  9.0 °C 29.7in /  1007.0hPa Calm     98% 0in /  0.0mm
10:46 48.7 °F /  9.3 °C 48.2 °F /  9.0 °C 29.7in /  1007.0hPa Calm     98% 0in /  0.0mm
10:51 48.7 °F /  9.3 °C 48.2 °F /  9.0 °C 29.7in /  1007.0hPa Calm     98% 0in /  0.0mm
10:57 48.6 °F /  9.2 °C 48.2 °F /  9.0 °C 29.7in /  1007.0hPa Calm     98% 0in /  0.0mm
11:02 48.6 °F /  9.2 °C 48.2 °F /  9.0 °C 29.8in /  1009.0hPa Calm     98% 0in /  0.0mm
11:07 48.6 °F /  9.2 °C 48.2 °F /  9.0 °C 29.8in /  1009.0hPa Calm     98% 0in /  0.0mm
11:12 48.6 °F /  9.2 °C 48.2 °F /  9.0 °C 29.8in /  1009.0hPa Calm     98% 0in /  0.0mm
11:17 48.6 °F /  9.2 °C 48.2 °F /  9.0 °C 29.8in /  1008.0hPa Calm     98% 0in /  0.0mm
11:22 48.7 °F /  9.3 °C 48.2 °F /  9.0 °C 29.8in /  1008.0hPa Calm     98% 0in /  0.0mm
11:27 48.7 °F /  9.3 °C 48.2 °F /  9.0 °C 29.8in /  1008.0hPa Calm     98% 0in /  0.0mm
11:32 48.7 °F /  9.3 °C 48.2 °F /  9.0 °C 29.8in /  1009.0hPa Calm     98% 0in /  0.0mm
11:37 48.7 °F /  9.3 °C 48.2 °F /  9.0 °C 29.8in /  1009.0hPa Calm     98% 0in /  0.0mm
11:42 49.1 °F /  9.5 °C 50 °F /  10.0 °C 29.8in /  1009.0hPa Calm     98% 0in /  0.0mm
11:47 49.1 °F /  9.5 °C 50 °F /  10.0 °C 29.8in /  1010.0hPa Calm     98% 0in /  0.0mm
11:52 49.3 °F /  9.6 °C 50 °F /  10.0 °C 29.8in /  1010.0hPa Calm     98% 0in /  0.0mm
11:57 49.3 °F /  9.6 °C 50 °F /  10.0 °C 29.8in /  1010.0hPa Calm     98% 0in /  0.0mm
12:02 49.3 °F /  9.6 °C 50 °F /  10.0 °C 29.8in /  1009.0hPa Calm     98% 0in /  0.0mm
12:07 49.3 °F /  9.6 °C 50 °F /  10.0 °C 29.8in /  1009.0hPa Calm     98% 0in /  0.0mm
12:17 49.3 °F /  9.6 °C 50 °F /  10.0 °C 29.8in /  1009.0hPa Calm     98% 0in /  0.0mm
12:22 49.3 °F /  9.6 °C 50 °F /  10.0 °C 29.8in /  1009.0hPa Calm     98% 0in /  0.0mm
12:32 49.3 °F /  9.6 °C 50 °F /  10.0 °C 29.8in /  1009.0hPa Calm     98% 0in /  0.0mm
12:37 49.3 °F /  9.6 °C 50 °F /  10.0 °C 29.8in /  1009.0hPa Calm     98% 0in /  0.0mm
12:42 50.9 °F /  10.5 °C 51.8 °F /  11.0 °C 29.8in /  1009.0hPa Calm     98% 0in /  0.0mm
12:47 51.1 °F /  10.6 °C 51.8 °F /  11.0 °C 29.8in /  1008.0hPa Calm     98% 0in /  0.0mm
12:53 50.9 °F /  10.5 °C 50 °F /  10.0 °C 29.8in /  1008.0hPa Calm     97% 0in /  0.0mm
12:58 50.9 °F /  10.5 °C 50 °F /  10.0 °C 29.8in /  1008.0hPa Calm     97% 0in /  0.0mm
13:03 50.7 °F /  10.4 °C 48.2 °F /  9.0 °C 29.8in /  1009.0hPa Calm     93% 0in /  0.0mm
13:08 50.7 °F /  10.4 °C 48.2 °F /  9.0 °C 29.8in /  1009.0hPa Calm     93% 0in /  0.0mm
13:13 50.9 °F /  10.5 °C 48.2 °F /  9.0 °C 29.8in /  1009.0hPa Calm     92% 0in /  0.0mm
13:23 50.9 °F /  10.5 °C 48.2 °F /  9.0 °C 29.8in /  1009.0hPa Calm     91% 0in /  0.0mm
13:28 50.9 °F /  10.5 °C 48.2 °F /  9.0 °C 29.8in /  1009.0hPa Calm     91% 0in /  0.0mm
13:38 50.5 °F /  10.3 °C 48.2 °F /  9.0 °C 29.8in /  1010.0hPa Calm     90% 0in /  0.0mm
13:43 51.1 °F /  10.6 °C 48.2 °F /  9.0 °C 29.8in /  1010.0hPa Calm     90% 0in /  0.0mm
13:48 51.4 °F /  10.8 °C 48.2 °F /  9.0 °C 29.8in /  1010.0hPa Calm     88% 0in /  0.0mm
13:53 51.6 °F /  10.9 °C 48.2 °F /  9.0 °C 29.8in /  1010.0hPa Calm     88% 0in /  0.0mm
13:58 52 °F /  11.1 °C 48.2 °F /  9.0 °C 29.8in /  1010.0hPa Calm     85% 0in /  0.0mm
14:03 52.2 °F /  11.2 °C 48.2 °F /  9.0 °C 29.8in /  1010.0hPa Calm     84% 0in /  0.0mm
14:08 52.5 °F /  11.4 °C 48.2 °F /  9.0 °C 29.8in /  1010.0hPa Calm     85% 0in /  0.0mm
14:13 52.7 °F /  11.5 °C 48.2 °F /  9.0 °C 29.8in /  1010.0hPa Calm     84% 0in /  0.0mm
14:18 52.7 °F /  11.5 °C 48.2 °F /  9.0 °C 29.8in /  1010.0hPa Calm     82% 0in /  0.0mm
14:23 52.5 °F /  11.4 °C 46.4 °F /  8.0 °C 29.8in /  1010.0hPa Calm     79% 0in /  0.0mm
14:38 52.2 °F /  11.2 °C 44.6 °F /  7.0 °C 29.9in /  1011.1hPa Calm     75% 0in /  0.0mm
14:43 52.3 °F /  11.3 °C 44.6 °F /  7.0 °C 29.9in /  1011.1hPa Calm     75% 0in /  0.0mm
14:48 52.2 °F /  11.2 °C 44.6 °F /  7.0 °C 29.9in /  1011.1hPa Calm     75% 0in /  0.0mm
14:53 52.2 °F /  11.2 °C 44.6 °F /  7.0 °C 29.9in /  1011.1hPa Calm     75% 0in /  0.0mm
14:59 52.2 °F /  11.2 °C 44.6 °F /  7.0 °C 29.9in /  1011.1hPa Calm     75% 0in /  0.0mm
15:04 52 °F /  11.1 °C 44.6 °F /  7.0 °C 29.9in /  1011.1hPa Calm     75% 0in /  0.0mm
15:14 52.2 °F /  11.2 °C 44.6 °F /  7.0 °C 29.9in /  1011.1hPa Calm     74% 0in /  0.0mm
15:29 52 °F /  11.1 °C 42.8 °F /  6.0 °C 29.9in /  1011.1hPa Calm     72% 0in /  0.0mm
15:39 51.6 °F /  10.9 °C 42.8 °F /  6.0 °C 29.9in /  1011.1hPa Calm     72% 0in /  0.0mm
15:44 51.6 °F /  10.9 °C 42.8 °F /  6.0 °C 29.9in /  1013.1hPa Calm     73% 0in /  0.0mm
15:49 51.4 °F /  10.8 °C 42.8 °F /  6.0 °C 29.9in /  1013.1hPa Calm     71% 0in /  0.0mm
15:54 51.4 °F /  10.8 °C 42.8 °F /  6.0 °C 29.9in /  1013.1hPa Calm     73% 0in /  0.0mm
15:59 51.3 °F /  10.7 °C 42.8 °F /  6.0 °C 29.9in /  1013.1hPa Calm     70% 0in /  0.0mm
16:04 51.3 °F /  10.7 °C 42.8 °F /  6.0 °C 29.9in /  1013.1hPa Calm     71% 0in /  0.0mm
16:09 51.4 °F /  10.8 °C 42.8 °F /  6.0 °C 29.9in /  1013.1hPa Calm     71% 0in /  0.0mm
16:14 51.4 °F /  10.8 °C 42.8 °F /  6.0 °C 29.9in /  1013.1hPa Calm     72% 0in /  0.0mm
16:19 51.4 °F /  10.8 °C 42.8 °F /  6.0 °C 29.9in /  1013.1hPa Calm     72% 0in /  0.0mm
16:24 50.9 °F /  10.5 °C 42.8 °F /  6.0 °C 29.9in /  1013.1hPa Calm     72% 0in /  0.0mm
16:29 50.9 °F /  10.5 °C 42.8 °F /  6.0 °C 29.9in /  1013.1hPa Calm     72% 0in /  0.0mm
16:35 50.2 °F /  10.1 °C 41 °F /  5.0 °C 29.9in /  1013.1hPa Calm     71% 0in /  0.0mm
16:40 49.8 °F /  9.9 °C 42.8 °F /  6.0 °C 29.9in /  1013.1hPa Calm     72% 0in /  0.0mm
16:45 49.5 °F /  9.7 °C 41 °F /  5.0 °C 29.9in /  1014.1hPa Calm     72% 0in /  0.0mm
16:50 49.3 °F /  9.6 °C 41 °F /  5.0 °C 29.9in /  1014.1hPa Calm     73% 0in /  0.0mm
16:55 48.9 °F /  9.4 °C 41 °F /  5.0 °C 29.9in /  1014.1hPa Calm     73% 0in /  0.0mm
17:00 48.7 °F /  9.3 °C 41 °F /  5.0 °C 29.9in /  1014.1hPa Calm     74% 0in /  0.0mm
17:05 48.4 °F /  9.1 °C 41 °F /  5.0 °C 29.9in /  1014.1hPa Calm     74% 0in /  0.0mm
17:10 48.2 °F /  9.0 °C 41 °F /  5.0 °C 29.9in /  1014.1hPa Calm     75% 0in /  0.0mm
17:15 47.8 °F /  8.8 °C 41 °F /  5.0 °C 29.9in /  1014.1hPa Calm     76% 0in /  0.0mm
17:18 47.8 °F /  8.8 °C 41 °F /  5.0 °C 29.9in /  1014.1hPa Calm     76% 0in /  0.0mm
17:23 47.8 °F /  8.8 °C 41 °F /  5.0 °C 29.9in /  1014.1hPa Calm     76% 0in /  0.0mm
17:28 47.8 °F /  8.8 °C 41 °F /  5.0 °C 29.9in /  1014.1hPa Calm     76% 0in /  0.0mm
17:33 47.1 °F /  8.4 °C 41 °F /  5.0 °C 29.9in /  1014.1hPa Calm     78% 0in /  0.0mm
17:38 46.9 °F /  8.3 °C 41 °F /  5.0 °C 29.9in /  1014.1hPa Calm     79% 0in /  0.0mm
17:43 46.9 °F /  8.3 °C 41 °F /  5.0 °C 29.9in /  1014.1hPa Calm     79% 0in /  0.0mm
17:48 46.4 °F /  8.0 °C 41 °F /  5.0 °C 30in /  1015.1hPa Calm     80% 0in /  0.0mm
17:53 46.2 °F /  7.9 °C 41 °F /  5.0 °C 30in /  1015.1hPa Calm     81% 0in /  0.0mm
17:58 46.2 °F /  7.9 °C 41 °F /  5.0 °C 30in /  1015.1hPa Calm     81% 0in /  0.0mm
18:03 46.2 °F /  7.9 °C 41 °F /  5.0 °C 30in /  1015.1hPa Calm     81% 0in /  0.0mm
18:08 45.9 °F /  7.7 °C 41 °F /  5.0 °C 30in /  1015.1hPa Calm     83% 0in /  0.0mm
18:13 45.9 °F /  7.7 °C 41 °F /  5.0 °C 30in /  1015.1hPa Calm     83% 0in /  0.0mm
18:17 45.9 °F /  7.7 °C 41 °F /  5.0 °C 30in /  1015.1hPa Calm     83% 0in /  0.0mm
18:22 45.9 °F /  7.7 °C 41 °F /  5.0 °C 30in /  1015.1hPa Calm     83% 0in /  0.0mm
18:27 45.9 °F /  7.7 °C 41 °F /  5.0 °C 30in /  1015.1hPa Calm     83% 0in /  0.0mm
18:32 45.9 °F /  7.7 °C 41 °F /  5.0 °C 30in /  1016.1hPa Calm     83% 0in /  0.0mm
18:37 45.9 °F /  7.7 °C 41 °F /  5.0 °C 30in /  1016.1hPa Calm     83% 0in /  0.0mm
18:42 45.9 °F /  7.7 °C 41 °F /  5.0 °C 30in /  1016.1hPa Calm     83% 0in /  0.0mm
18:47 45.9 °F /  7.7 °C 41 °F /  5.0 °C 30in /  1016.1hPa Calm     83% 0in /  0.0mm
18:52 45.9 °F /  7.7 °C 41 °F /  5.0 °C 30in /  1016.1hPa Calm     83% 0in /  0.0mm
18:57 45.9 °F /  7.7 °C 41 °F /  5.0 °C 30in /  1016.1hPa Calm     83% 0in /  0.0mm
19:02 41.9 °F /  5.5 °C 39.2 °F /  4.0 °C 30in /  1016.8hPa Calm     86% 0in /  0.0mm
19:07 41.9 °F /  5.5 °C 39.2 °F /  4.0 °C 30in /  1016.8hPa Calm     86% 0in /  0.0mm
19:12 41.4 °F /  5.2 °C 37.4 °F /  3.0 °C 30in /  1016.8hPa Calm     87% 0in /  0.0mm
19:17 41.4 °F /  5.2 °C 37.4 °F /  3.0 °C 30in /  1016.8hPa Calm     87% 0in /  0.0mm
19:22 41.7 °F /  5.4 °C 39.2 °F /  4.0 °C 30in /  1016.8hPa Calm     90% 0in /  0.0mm
19:27 41.7 °F /  5.4 °C 39.2 °F /  4.0 °C 30in /  1016.8hPa Calm     90% 0in /  0.0mm
19:32 41.7 °F /  5.4 °C 39.2 °F /  4.0 °C 30in /  1016.8hPa Calm     90% 0in /  0.0mm
19:37 41.7 °F /  5.4 °C 39.2 °F /  4.0 °C 30in /  1016.8hPa Calm     90% 0in /  0.0mm
19:42 41.7 °F /  5.4 °C 39.2 °F /  4.0 °C 30in /  1016.8hPa Calm     90% 0in /  0.0mm
19:47 41.7 °F /  5.4 °C 39.2 °F /  4.0 °C 30in /  1016.8hPa Calm     90% 0in /  0.0mm
19:52 41.7 °F /  5.4 °C 39.2 °F /  4.0 °C 30in /  1016.8hPa Calm     90% 0in /  0.0mm
19:57 41.7 °F /  5.4 °C 39.2 °F /  4.0 °C 30in /  1016.8hPa Calm     90% 0in /  0.0mm
20:02 41.7 °F /  5.4 °C 39.2 °F /  4.0 °C 30in /  1016.8hPa Calm     90% 0in /  0.0mm
20:07 43.3 °F /  6.3 °C 42.8 °F /  6.0 °C 30in /  1016.8hPa Calm     93% 0in /  0.0mm
20:12 43.3 °F /  6.3 °C 42.8 °F /  6.0 °C 30in /  1016.8hPa Calm     93% 0in /  0.0mm
20:17 43.3 °F /  6.3 °C 42.8 °F /  6.0 °C 30in /  1016.8hPa Calm     93% 0in /  0.0mm
20:22 43.3 °F /  6.3 °C 42.8 °F /  6.0 °C 30in /  1016.8hPa Calm     93% 0in /  0.0mm
20:27 43.3 °F /  6.3 °C 42.8 °F /  6.0 °C 30in /  1016.8hPa Calm     93% 0in /  0.0mm
20:32 43.3 °F /  6.3 °C 42.8 °F /  6.0 °C 30in /  1016.1hPa Calm     93% 0in /  0.0mm
20:37 43.3 °F /  6.3 °C 42.8 °F /  6.0 °C 30in /  1016.1hPa Calm     93% 0in /  0.0mm
20:43 43.3 °F /  6.3 °C 42.8 °F /  6.0 °C 30in /  1016.1hPa Calm     93% 0in /  0.0mm
20:48 43.3 °F /  6.3 °C 42.8 °F /  6.0 °C 30in /  1016.8hPa Calm     93% 0in /  0.0mm
20:53 43.3 °F /  6.3 °C 42.8 °F /  6.0 °C 30in /  1016.8hPa Calm     93% 0in /  0.0mm
20:57 43.3 °F /  6.3 °C 42.8 °F /  6.0 °C 30in /  1016.8hPa Calm     93% 0in /  0.0mm
21:03 43.5 °F /  6.4 °C 42.8 °F /  6.0 °C 30.1in /  1018.2hPa Calm     95% 0in /  0.0mm
21:07 43.5 °F /  6.4 °C 42.8 °F /  6.0 °C 30.1in /  1018.2hPa Calm     95% 0in /  0.0mm
21:12 43.5 °F /  6.4 °C 42.8 °F /  6.0 °C 30.1in /  1018.2hPa Calm     95% 0in /  0.0mm
21:17 43.5 °F /  6.4 °C 42.8 °F /  6.0 °C 30.1in /  1018.2hPa Calm     95% 0in /  0.0mm
21:22 43.5 °F /  6.4 °C 42.8 °F /  6.0 °C 30.1in /  1018.2hPa Calm     95% 0in /  0.0mm
21:27 44.1 °F /  6.7 °C 42.8 °F /  6.0 °C 30.1in /  1018.2hPa Calm     96% 0in /  0.0mm
21:32 44.1 °F /  6.7 °C 42.8 °F /  6.0 °C 30.1in /  1018.2hPa Calm     96% 0in /  0.0mm
21:38 44.1 °F /  6.7 °C 42.8 °F /  6.0 °C 30.1in /  1018.2hPa Calm     96% 0in /  0.0mm
21:43 44.1 °F /  6.7 °C 42.8 °F /  6.0 °C 30.1in /  1018.2hPa Calm     96% 0in /  0.0mm
21:48 44.4 °F /  6.9 °C 44.6 °F /  7.0 °C 30.1in /  1018.2hPa Calm     96% 0in /  0.0mm
21:53 44.6 °F /  7.0 °C 44.6 °F /  7.0 °C 30.1in /  1018.2hPa Calm     96% 0in /  0.0mm
21:58 44.6 °F /  7.0 °C 44.6 °F /  7.0 °C 30.1in /  1018.2hPa Calm     96% 0in /  0.0mm
22:03 44.8 °F /  7.1 °C 44.6 °F /  7.0 °C 30.1in /  1018.2hPa Calm     96% 0in /  0.0mm
22:08 44.8 °F /  7.1 °C 44.6 °F /  7.0 °C 30.1in /  1018.2hPa Calm     96% 0in /  0.0mm
22:13 45.1 °F /  7.3 °C 44.6 °F /  7.0 °C 30.1in /  1018.2hPa Calm     96% 0in /  0.0mm
22:18 45.1 °F /  7.3 °C 44.6 °F /  7.0 °C 30.1in /  1018.8hPa Calm     96% 0in /  0.0mm
22:21 45 °F /  7.2 °C 44.6 °F /  7.0 °C 30.1in /  1018.8hPa Calm     95% 0in /  0.0mm
22:26 44.8 °F /  7.1 °C 42.8 °F /  6.0 °C 30.1in /  1018.8hPa Calm     95% 0in /  0.0mm
22:31 44.8 °F /  7.1 °C 42.8 °F /  6.0 °C 30.1in /  1018.8hPa Calm     95% 0in /  0.0mm
22:36 44.8 °F /  7.1 °C 42.8 °F /  6.0 °C 30.1in /  1018.8hPa Calm     95% 0in /  0.0mm
22:41 44.8 °F /  7.1 °C 42.8 °F /  6.0 °C 30.1in /  1018.8hPa Calm     95% 0in /  0.0mm
22:46 44.8 °F /  7.1 °C 42.8 °F /  6.0 °C 30.1in /  1018.8hPa Calm     95% 0in /  0.0mm
22:51 44.8 °F /  7.1 °C 42.8 °F /  6.0 °C 30.1in /  1018.8hPa Calm     95% 0in /  0.0mm
22:57 44.8 °F /  7.1 °C 42.8 °F /  6.0 °C 30.1in /  1018.8hPa Calm     95% 0in /  0.0mm
23:02 44.6 °F /  7.0 °C 42.8 °F /  6.0 °C 30.1in /  1018.8hPa Calm     95% 0in /  0.0mm
23:07 44.6 °F /  7.0 °C 42.8 °F /  6.0 °C 30.1in /  1018.8hPa Calm     94% 0in /  0.0mm
23:12 44.6 °F /  7.0 °C 42.8 °F /  6.0 °C 30.1in /  1018.8hPa Calm     94% 0in /  0.0mm
23:17 44.6 °F /  7.0 °C 42.8 °F /  6.0 °C 30.1in /  1018.8hPa Calm     94% 0in /  0.0mm
23:22 44.6 °F /  7.0 °C 42.8 °F /  6.0 °C 30.1in /  1018.8hPa Calm     95% 0in /  0.0mm
23:27 44.6 °F /  7.0 °C 42.8 °F /  6.0 °C 30.1in /  1018.8hPa Calm     95% 0in /  0.0mm
23:32 44.6 °F /  7.0 °C 42.8 °F /  6.0 °C 30.1in /  1018.8hPa Calm     95% 0in /  0.0mm
23:37 44.6 °F /  7.0 °C 42.8 °F /  6.0 °C 30.1in /  1018.8hPa Calm     95% 0in /  0.0mm
23:42 44.6 °F /  7.0 °C 42.8 °F /  6.0 °C 30.1in /  1018.8hPa Calm     95% 0in /  0.0mm
23:47 44.6 °F /  7.0 °C 42.8 °F /  6.0 °C 30.1in /  1018.2hPa Calm     95% 0in /  0.0mm
23:52 44.6 °F /  7.0 °C 42.8 °F /  6.0 °C 30.1in /  1018.2hPa Calm     95% 0in /  0.0mm
23:57 44.8 °F /  7.1 °C 42.8 °F /  6.0 °C 30.1in /  1018.2hPa Calm     94% 0in /  0.0mm
Données Historique de Météo Turbie

Mise a jour : 21/05/2018 16:34:12
Généré par Cumulus 1.9.4 (1099)